Time;durP1;ratioP1;P1;durP2;ratioP2;P2;SDS_P1;SDS_P2;PMS_P1;PMS_P2;Temp;Humidity;BMP_temperature;BMP_pressure;BME280_temperature;BME280_humidity;BME280_pressure;Samples;Min_cycle;Max_cycle;Signal;HPM_P1;HPM_P2
2023/06/22 00:01:50;;;;;;;4.50;2.90;;;24.00;99.90;;;;;;5034513;28;20447;-78
2023/06/22 00:04:16;;;;;;;5.07;3.13;;;24.00;99.90;;;;;;5034653;28;20352;-82
2023/06/22 00:06:41;;;;;;;4.72;2.97;;;23.90;99.90;;;;;;5034057;28;20037;-80
2023/06/22 00:09:07;;;;;;;5.10;2.83;;;23.80;99.90;;;;;;5034051;28;20033;-81
2023/06/22 00:11:36;;;;;;;6.60;2.80;;;23.80;99.90;;;;;;5032926;28;20087;-79
2023/06/22 00:14:03;;;;;;;4.50;2.70;;;23.80;99.90;;;;;;5034701;28;20029;-80
2023/06/22 00:16:29;;;;;;;7.78;2.83;;;23.80;99.90;;;;;;5034136;28;20040;-79
2023/06/22 00:18:54;;;;;;;4.20;2.97;;;23.80;99.90;;;;;;5035197;28;20034;-80
2023/06/22 00:21:20;;;;;;;5.40;3.28;;;23.80;99.90;;;;;;5034911;28;20026;-84
2023/06/22 00:23:47;;;;;;;7.65;3.38;;;23.80;99.90;;;;;;5034106;28;20032;-83
2023/06/22 00:26:13;;;;;;;4.47;3.35;;;23.80;99.90;;;;;;5034486;28;20033;-82
2023/06/22 00:28:39;;;;;;;8.50;3.65;;;23.70;99.90;;;;;;5035056;28;20091;-82
2023/06/22 00:31:04;;;;;;;5.47;3.50;;;23.60;99.90;;;;;;5034312;28;20026;-80
2023/06/22 00:33:31;;;;;;;8.30;3.28;;;23.50;99.90;;;;;;5034210;28;20120;-80
2023/06/22 00:35:57;;;;;;;8.63;4.20;;;23.40;99.90;;;;;;5034571;28;20026;-81
2023/06/22 00:38:22;;;;;;;9.77;3.63;;;23.50;99.90;;;;;;5033509;28;20034;-81
2023/06/22 00:40:48;;;;;;;6.35;3.80;;;23.40;99.90;;;;;;5034499;28;20083;-81
2023/06/22 00:43:14;;;;;;;6.72;3.63;;;23.40;99.90;;;;;;5032724;28;20479;-81
2023/06/22 00:45:39;;;;;;;7.63;3.75;;;23.40;99.90;;;;;;5033879;28;20029;-81
2023/06/22 00:48:06;;;;;;;6.70;3.85;;;23.40;99.90;;;;;;5034778;28;20094;-80
2023/06/22 00:50:35;;;;;;;9.00;3.80;;;23.40;99.90;;;;;;5034772;28;20526;-81
2023/06/22 00:53:08;;;;;;;8.95;4.43;;;23.30;99.90;;;;;;5033426;28;20024;-82
2023/06/22 00:55:45;;;;;;;6.25;4.07;;;23.20;99.90;;;;;;5034221;28;20021;-81
2023/06/22 00:58:11;;;;;;;8.43;4.03;;;23.10;99.90;;;;;;5040736;28;20049;-81
2023/06/22 01:00:38;;;;;;;5.72;3.72;;;23.10;99.90;;;;;;5054870;28;20104;-80
2023/06/22 01:03:08;;;;;;;5.55;4.07;;;23.00;99.90;;;;;;5054138;28;20035;-81
2023/06/22 01:05:34;;;;;;;7.25;4.10;;;23.00;99.90;;;;;;5053470;28;20021;-82
2023/06/22 01:08:09;;;;;;;7.97;4.70;;;23.00;99.90;;;;;;5054272;28;20033;-81
2023/06/22 01:10:55;;;;;;;5.60;4.07;;;22.90;99.90;;;;;;5052780;28;20025;-81
2023/06/22 01:13:50;;;;;;;8.25;4.88;;;22.90;99.90;;;;;;5053302;28;20470;-82
2023/06/22 01:16:19;;;;;;;8.52;4.35;;;22.90;99.90;;;;;;5053312;28;20029;-81
2023/06/22 01:18:46;;;;;;;6.60;4.22;;;22.80;99.90;;;;;;5052989;28;20033;-81
2023/06/22 01:21:17;;;;;;;6.28;4.00;;;22.70;99.90;;;;;;5053083;28;20033;-80
2023/06/22 01:24:09;;;;;;;9.30;4.63;;;22.70;99.90;;;;;;5038901;28;20025;-79
2023/06/22 01:26:52;;;;;;;6.22;4.43;;;22.70;99.90;;;;;;5033915;28;20061;-80
2023/06/22 01:29:18;;;;;;;7.40;4.80;;;22.70;99.90;;;;;;5034285;28;20060;-80
2023/06/22 01:31:45;;;;;;;9.25;4.80;;;22.60;99.90;;;;;;5032670;28;20025;-82
2023/06/22 01:34:12;;;;;;;8.30;4.90;;;22.60;99.90;;;;;;5032664;28;20029;-80
2023/06/22 01:36:39;;;;;;;8.55;4.97;;;22.60;99.90;;;;;;5033309;28;20029;-80
2023/06/22 01:39:05;;;;;;;9.63;4.70;;;22.70;99.90;;;;;;5033089;28;20029;-80
2023/06/22 01:41:37;;;;;;;9.57;4.63;;;22.70;99.90;;;;;;5033161;28;20075;-80
2023/06/22 01:44:07;;;;;;;9.25;4.57;;;22.70;99.90;;;;;;5034190;28;20489;-80
2023/06/22 01:46:34;;;;;;;7.20;4.68;;;22.70;99.90;;;;;;5033057;28;20052;-80
2023/06/22 01:49:00;;;;;;;6.00;4.40;;;22.60;99.90;;;;;;5032627;28;20033;-80
2023/06/22 01:51:26;;;;;;;7.22;4.60;;;22.60;99.90;;;;;;5032755;28;20025;-80
2023/06/22 01:53:52;;;;;;;6.68;4.88;;;22.60;99.90;;;;;;5018215;28;20129;-80
2023/06/22 01:56:18;;;;;;;6.22;4.50;;;22.60;99.90;;;;;;5014204;28;20274;-80
2023/06/22 01:59:11;;;;;;;6.85;4.00;;;22.50;99.90;;;;;;5025596;28;20049;-80
2023/06/22 02:01:44;;;;;;;7.63;4.18;;;22.50;99.90;;;;;;5034033;28;20060;-81
2023/06/22 02:04:18;;;;;;;6.90;4.10;;;22.40;99.90;;;;;;5016271;28;20036;-80
2023/06/22 02:06:46;;;;;;;5.75;4.18;;;22.30;99.90;;;;;;5016187;28;20021;-80
2023/06/22 02:09:17;;;;;;;5.50;4.28;;;22.40;99.90;;;;;;5015814;28;20133;-81
2023/06/22 02:11:44;;;;;;;;;;;22.40;99.90;;;;;;5015881;28;20076;-81
2023/06/22 02:14:11;;;;;;;8.73;3.85;;;22.20;99.90;;;;;;5022812;28;19916;-80
2023/06/22 02:16:37;;;;;;;8.27;4.00;;;22.30;99.90;;;;;;5053144;28;20025;-79
2023/06/22 02:19:03;;;;;;;6.28;4.00;;;22.30;99.90;;;;;;5052285;28;20389;-80
2023/06/22 02:21:30;;;;;;;9.80;4.50;;;22.20;99.90;;;;;;5053616;28;20036;-80
2023/06/22 02:23:56;;;;;;;7.22;4.65;;;22.20;99.90;;;;;;5052719;28;20025;-80
2023/06/22 02:26:23;;;;;;;8.52;4.70;;;22.20;99.90;;;;;;5052352;28;20025;-81
2023/06/22 02:28:49;;;;;;;6.90;4.78;;;22.10;99.90;;;;;;5051650;28;20036;-81
2023/06/22 02:31:14;;;;;;;7.85;4.90;;;22.10;99.90;;;;;;5055385;28;20025;-80
2023/06/22 02:33:40;;;;;;;6.30;4.22;;;22.10;99.90;;;;;;5055552;28;20032;-80
2023/06/22 02:36:08;;;;;;;7.72;4.40;;;22.10;99.90;;;;;;5056230;28;20021;-81
2023/06/22 02:38:37;;;;;;;8.70;4.35;;;22.10;99.90;;;;;;5055647;28;20064;-79
2023/06/22 02:41:03;;;;;;;7.60;4.95;;;22.10;99.90;;;;;;5056333;28;20083;-80
2023/06/22 02:43:28;;;;;;;8.75;4.95;;;22.10;99.90;;;;;;5057307;28;20029;-80
2023/06/22 02:45:55;;;;;;;8.23;4.70;;;22.10;99.90;;;;;;5056803;28;20017;-80
2023/06/22 02:48:20;;;;;;;11.32;5.32;;;22.10;99.90;;;;;;5056051;28;20033;-81
2023/06/22 02:50:46;;;;;;;9.02;5.03;;;22.00;99.90;;;;;;5056719;28;20355;-81
2023/06/22 02:53:11;;;;;;;9.45;4.72;;;22.00;99.90;;;;;;5049555;28;20124;-80
2023/06/22 02:55:39;;;;;;;8.18;4.80;;;21.90;99.90;;;;;;5038520;28;20382;-80
2023/06/22 02:58:05;;;;;;;7.72;4.70;;;21.90;99.90;;;;;;5038649;28;20057;-80
2023/06/22 03:00:31;;;;;;;7.68;4.63;;;21.90;99.90;;;;;;5039698;28;20037;-81
2023/06/22 03:02:57;;;;;;;8.82;5.28;;;21.90;99.90;;;;;;5056617;28;20060;-80
2023/06/22 03:05:23;;;;;;;7.82;4.40;;;21.90;99.90;;;;;;5039413;28;20024;-79
2023/06/22 03:07:49;;;;;;;8.38;4.88;;;21.90;99.90;;;;;;5038457;28;20041;-81
2023/06/22 03:10:15;;;;;;;7.00;4.18;;;21.90;99.90;;;;;;5039170;28;20115;-80
2023/06/22 03:12:42;;;;;;;7.50;4.38;;;21.80;99.90;;;;;;5056160;28;20025;-81
2023/06/22 03:15:11;;;;;;;8.27;4.40;;;21.80;99.90;;;;;;5056825;28;20025;-80
2023/06/22 03:17:38;;;;;;;12.02;4.60;;;21.80;99.90;;;;;;5038695;28;20484;-81
2023/06/22 03:20:10;;;;;;;7.85;4.70;;;21.80;99.90;;;;;;5039064;28;20029;-80
2023/06/22 03:22:39;;;;;;;;;;;21.80;99.90;;;;;;5039001;28;20044;-80
2023/06/22 03:25:13;;;;;;;7.85;4.72;;;21.80;99.90;;;;;;5038153;28;20348;-81
2023/06/22 03:27:39;;;;;;;7.97;4.57;;;21.70;99.90;;;;;;5039355;28;20044;-81
2023/06/22 03:30:07;;;;;;;8.45;4.43;;;21.80;99.90;;;;;;5038712;28;20029;-81
2023/06/22 03:32:32;;;;;;;7.00;4.28;;;21.70;99.90;;;;;;5056101;28;20462;-81
2023/06/22 03:34:58;;;;;;;7.00;4.25;;;21.70;99.90;;;;;;5038843;28;20025;-81
2023/06/22 03:37:25;;;;;;;8.95;4.25;;;21.80;99.90;;;;;;5056255;28;20048;-81
2023/06/22 03:39:51;;;;;;;10.10;4.53;;;21.70;99.90;;;;;;5038667;28;20029;-80
2023/06/22 03:42:17;;;;;;;10.05;4.40;;;21.80;99.90;;;;;;5038125;28;20076;-80
2023/06/22 03:44:43;;;;;;;7.03;4.18;;;21.80;99.90;;;;;;5038503;28;20025;-80
2023/06/22 03:47:09;;;;;;;8.25;4.57;;;21.80;99.90;;;;;;5038591;28;20025;-81
2023/06/22 03:49:35;;;;;;;7.05;4.03;;;21.80;99.90;;;;;;5055961;28;20412;-80
2023/06/22 03:52:01;;;;;;;5.68;3.85;;;21.80;99.90;;;;;;5038220;28;20025;-80
2023/06/22 03:54:28;;;;;;;9.23;4.53;;;21.80;99.90;;;;;;5038486;28;20123;-81
2023/06/22 03:56:54;;;;;;;10.05;4.63;;;21.70;99.90;;;;;;5037890;28;20082;-80
2023/06/22 03:59:19;;;;;;;6.38;3.80;;;21.80;99.90;;;;;;5056135;28;20077;-80
2023/06/22 04:01:46;;;;;;;9.23;4.43;;;21.70;99.90;;;;;;5037476;28;20112;-81
2023/06/22 04:04:12;;;;;;;7.47;3.97;;;21.70;99.90;;;;;;5037894;28;20369;-80
2023/06/22 04:06:38;;;;;;;9.60;4.50;;;21.70;99.90;;;;;;5037845;28;20040;-80
2023/06/22 04:09:05;;;;;;;8.00;4.15;;;21.70;99.90;;;;;;5054863;28;20041;-80
2023/06/22 04:11:31;;;;;;;9.23;4.15;;;21.70;99.90;;;;;;5037887;28;20056;-79
2023/06/22 04:13:56;;;;;;;8.15;4.40;;;21.70;99.90;;;;;;5055152;28;20025;-80
2023/06/22 04:16:22;;;;;;;8.45;4.38;;;21.70;99.90;;;;;;5038019;28;20068;-80
2023/06/22 04:18:47;;;;;;;7.88;4.45;;;21.70;99.90;;;;;;5037410;28;20064;-80
2023/06/22 04:21:13;;;;;;;9.38;4.55;;;21.70;99.90;;;;;;5055384;28;20040;-80
2023/06/22 04:23:39;;;;;;;8.07;4.07;;;21.70;99.90;;;;;;5041966;28;20089;-80
2023/06/22 04:26:05;;;;;;;8.57;4.60;;;21.70;99.90;;;;;;5017232;28;20586;-80
2023/06/22 04:28:34;;;;;;;4.70;3.67;;;21.60;99.90;;;;;;5018033;28;20042;-81
2023/06/22 04:31:02;;;;;;;7.78;4.45;;;21.70;99.90;;;;;;5034939;28;20018;-81
2023/06/22 04:33:29;;;;;;;7.00;4.75;;;21.60;99.90;;;;;;5017959;28;20025;-80
2023/06/22 04:35:56;;;;;;;9.88;4.22;;;21.60;99.90;;;;;;5016799;28;20033;-80
2023/06/22 04:38:23;;;;;;;8.43;4.28;;;21.70;99.90;;;;;;5017290;28;20038;-80
2023/06/22 04:40:49;;;;;;;6.40;4.57;;;21.70;99.90;;;;;;5017047;28;20044;-81
2023/06/22 04:43:14;;;;;;;8.52;4.53;;;21.70;99.90;;;;;;5017196;28;20029;-80
2023/06/22 04:45:40;;;;;;;7.13;4.75;;;21.70;99.90;;;;;;5017344;28;20026;-79
2023/06/22 04:48:06;;;;;;;8.38;4.43;;;21.70;99.90;;;;;;5034531;28;20029;-80
2023/06/22 04:50:32;;;;;;;9.27;4.50;;;21.70;99.90;;;;;;5054708;28;20508;-80
2023/06/22 04:52:57;;;;;;;8.05;4.68;;;21.70;99.90;;;;;;5053162;28;20381;-80
2023/06/22 04:55:25;;;;;;;9.73;4.65;;;21.80;99.90;;;;;;5054370;28;20028;-81
2023/06/22 04:57:51;;;;;;;11.20;4.82;;;21.80;99.90;;;;;;5052647;28;20417;-80
2023/06/22 05:00:18;;;;;;;10.10;5.15;;;21.80;99.90;;;;;;5053584;28;20082;-80
2023/06/22 05:02:46;;;;;;;7.60;4.53;;;21.80;99.90;;;;;;5053475;28;20107;-80
2023/06/22 05:05:15;;;;;;;12.57;5.03;;;21.80;99.90;;;;;;5054154;28;20083;-79
2023/06/22 05:07:47;;;;;;;6.95;4.40;;;21.90;99.90;;;;;;5054279;28;20025;-81
2023/06/22 05:10:13;;;;;;;11.52;5.38;;;21.80;99.90;;;;;;5054185;28;20021;-80
2023/06/22 05:12:40;;;;;;;8.50;5.13;;;21.90;99.90;;;;;;5053184;28;20453;-80
2023/06/22 05:15:07;;;;;;;7.75;4.60;;;21.80;99.90;;;;;;5052654;28;20108;-81
2023/06/22 05:17:34;;;;;;;8.10;4.80;;;21.80;99.90;;;;;;5053284;28;20068;-81
2023/06/22 05:19:59;;;;;;;9.82;5.20;;;21.90;99.90;;;;;;5053634;28;20021;-80
2023/06/22 05:22:25;;;;;;;7.85;4.65;;;21.90;99.90;;;;;;5052871;28;20166;-80
2023/06/22 05:24:51;;;;;;;8.57;5.18;;;21.90;99.90;;;;;;5035479;28;20028;-80
2023/06/22 05:27:16;;;;;;;7.85;4.70;;;21.90;99.90;;;;;;5036016;28;20079;-79
2023/06/22 05:29:44;;;;;;;8.05;5.13;;;22.00;99.90;;;;;;5036325;28;20119;-79
2023/06/22 05:32:10;;;;;;;8.90;4.57;;;22.00;99.90;;;;;;5035385;28;20076;-79
2023/06/22 05:34:36;;;;;;;10.88;5.07;;;22.00;99.90;;;;;;5036150;28;20029;-80
2023/06/22 05:37:02;;;;;;;8.63;5.88;;;22.00;99.90;;;;;;5035687;28;20025;-80
2023/06/22 05:39:28;;;;;;;8.55;5.10;;;22.00;99.90;;;;;;5035993;28;20037;-80
2023/06/22 05:41:53;;;;;;;10.15;5.53;;;22.10;99.90;;;;;;5035881;28;20124;-80
2023/06/22 05:44:19;;;;;;;9.55;5.50;;;22.10;99.90;;;;;;5036176;28;20057;-80
2023/06/22 05:46:46;;;;;;;8.45;5.18;;;22.20;99.90;;;;;;5035684;28;20054;-80
2023/06/22 05:49:13;;;;;;;9.07;5.18;;;22.10;99.90;;;;;;5035726;28;20029;-80
2023/06/22 05:51:39;;;;;;;9.80;5.50;;;22.20;99.90;;;;;;5035366;28;20079;-80
2023/06/22 05:54:04;;;;;;;9.63;5.35;;;22.20;99.90;;;;;;5035632;28;20434;-80
2023/06/22 05:56:30;;;;;;;9.82;5.13;;;22.20;99.90;;;;;;5035678;28;20063;-80
2023/06/22 05:58:56;;;;;;;7.57;4.60;;;22.20;99.90;;;;;;5035264;28;20049;-79
2023/06/22 06:01:21;;;;;;;13.73;5.43;;;22.20;99.90;;;;;;5025600;28;20069;-81
2023/06/22 06:03:49;;;;;;;7.88;5.40;;;22.20;99.90;;;;;;5034029;28;20053;-81
2023/06/22 06:06:15;;;;;;;12.07;5.65;;;22.10;99.90;;;;;;5021941;28;20374;-81
2023/06/22 06:08:41;;;;;;;9.30;5.95;;;22.10;99.90;;;;;;5023028;28;20029;-81
2023/06/22 06:11:06;;;;;;;16.65;6.18;;;22.20;99.90;;;;;;5022598;28;20091;-81
2023/06/22 06:13:32;;;;;;;10.85;5.63;;;22.20;99.90;;;;;;5022732;28;20029;-81
2023/06/22 06:15:59;;;;;;;10.15;5.22;;;22.20;99.90;;;;;;5022344;28;20052;-82
2023/06/22 06:18:24;;;;;;;13.70;5.72;;;22.30;99.90;;;;;;5022531;28;20072;-82
2023/06/22 06:20:50;;;;;;;7.82;5.50;;;22.30;99.90;;;;;;5022418;28;20107;-81
2023/06/22 06:23:17;;;;;;;9.27;5.15;;;22.40;99.90;;;;;;5039225;28;20147;-81
2023/06/22 06:25:42;;;;;;;11.65;5.35;;;22.40;99.90;;;;;;5058975;28;20053;-81
2023/06/22 06:28:08;;;;;;;9.57;5.40;;;22.50;99.90;;;;;;5058592;28;20131;-82
2023/06/22 06:30:34;;;;;;;11.63;5.22;;;22.50;99.90;;;;;;5058010;28;20021;-82
2023/06/22 06:33:00;;;;;;;9.38;5.20;;;22.50;99.90;;;;;;5041867;28;20035;-81
2023/06/22 06:35:25;;;;;;;14.27;5.15;;;22.60;99.90;;;;;;5042304;28;20104;-82
2023/06/22 06:37:51;;;;;;;11.65;5.25;;;22.70;99.90;;;;;;5042191;28;20128;-83
2023/06/22 06:40:18;;;;;;;9.40;4.82;;;22.70;99.90;;;;;;5058418;28;20467;-81
2023/06/22 06:42:46;;;;;;;8.90;4.85;;;22.80;99.90;;;;;;5022926;28;20057;-81
2023/06/22 06:45:22;;;;;;;9.80;5.00;;;22.80;99.90;;;;;;5022197;28;20030;-80
2023/06/22 06:47:48;;;;;;;14.32;5.22;;;22.90;99.90;;;;;;5034823;28;20025;-81
2023/06/22 06:50:14;;;;;;;11.25;5.03;;;22.90;99.90;;;;;;5057345;28;20710;-80
2023/06/22 06:52:40;;;;;;;9.48;4.85;;;22.90;99.90;;;;;;5053867;28;20032;-81
2023/06/22 06:55:08;;;;;;;9.27;4.68;;;23.00;99.90;;;;;;5021004;28;20025;-81
2023/06/22 06:57:33;;;;;;;11.95;5.90;;;23.00;99.90;;;;;;5039243;28;20029;-80
2023/06/22 06:59:59;;;;;;;12.65;5.15;;;23.10;99.90;;;;;;5038709;28;20041;-81
2023/06/22 07:02:27;;;;;;;11.52;5.05;;;23.10;99.90;;;;;;5022145;28;20032;-82
2023/06/22 07:04:55;;;;;;;11.77;5.43;;;23.10;99.90;;;;;;5030088;28;20033;-81
2023/06/22 07:07:21;;;;;;;9.70;5.50;;;23.10;99.90;;;;;;5045115;28;20458;-81
2023/06/22 07:09:47;;;;;;;9.80;5.00;;;23.20;99.90;;;;;;5023268;28;20085;-81
2023/06/22 07:12:12;;;;;;;11.75;5.10;;;23.20;99.90;;;;;;5031304;28;20031;-80
2023/06/22 07:14:38;;;;;;;10.52;5.57;;;23.30;99.90;;;;;;5027647;28;20029;-80
2023/06/22 07:17:04;;;;;;;8.75;4.82;;;23.30;99.90;;;;;;5028777;28;20113;-81
2023/06/22 07:19:31;;;;;;;10.25;5.10;;;23.30;99.90;;;;;;5025319;28;20037;-80
2023/06/22 07:21:56;;;;;;;8.52;5.03;;;23.40;99.90;;;;;;5045623;28;20037;-80
2023/06/22 07:24:22;;;;;;;8.77;4.55;;;23.50;99.90;;;;;;5034134;28;20030;-80
2023/06/22 07:26:49;;;;;;;9.98;5.22;;;23.50;99.90;;;;;;5028263;28;20116;-80
2023/06/22 07:29:22;;;;;;;8.68;4.68;;;23.60;99.90;;;;;;5022431;28;20095;-80
2023/06/22 07:31:51;;;;;;;7.68;5.20;;;23.60;99.90;;;;;;5019180;28;20021;-81
2023/06/22 07:34:17;;;;;;;8.43;5.05;;;23.70;99.90;;;;;;5019479;28;20566;-82
2023/06/22 07:36:43;;;;;;;8.55;5.03;;;23.70;99.90;;;;;;5043558;28;20070;-83
2023/06/22 07:39:09;;;;;;;11.40;4.57;;;23.80;99.90;;;;;;5043933;28;20082;-83
2023/06/22 07:41:34;;;;;;;11.63;4.65;;;23.80;99.90;;;;;;5037814;28;20063;-82
2023/06/22 07:44:00;;;;;;;10.70;5.13;;;23.80;99.90;;;;;;5020336;28;20055;-84
2023/06/22 07:46:26;;;;;;;9.30;4.82;;;23.90;99.90;;;;;;5045391;28;20032;-83
2023/06/22 07:48:51;;;;;;;11.23;5.32;;;24.00;99.90;;;;;;5054893;28;20039;-83
2023/06/22 07:51:17;;;;;;;7.10;4.55;;;24.00;99.90;;;;;;5055144;28;20036;-80
2023/06/22 07:53:43;;;;;;;11.45;4.70;;;24.10;99.90;;;;;;5055465;28;20028;-82
2023/06/22 07:56:13;;;;;;;9.10;4.85;;;24.10;99.90;;;;;;5039041;28;20025;-80
2023/06/22 07:58:39;;;;;;;10.55;4.60;;;24.10;99.90;;;;;;5039365;28;20048;-82
2023/06/22 08:01:05;;;;;;;9.18;5.20;;;24.20;99.90;;;;;;5049139;28;20032;-82
2023/06/22 08:03:31;;;;;;;7.93;4.88;;;24.20;99.90;;;;;;5037931;28;20036;-82
2023/06/22 08:05:57;;;;;;;8.15;4.90;;;24.30;99.90;;;;;;5037922;28;20025;-83
2023/06/22 08:08:23;;;;;;;8.73;4.80;;;24.30;99.90;;;;;;5037237;28;20478;-81
2023/06/22 08:10:49;;;;;;;10.48;4.72;;;24.30;99.90;;;;;;5054612;28;20036;-81
2023/06/22 08:13:15;;;;;;;9.57;4.72;;;24.40;99.90;;;;;;5043133;28;20182;-81
2023/06/22 08:15:40;;;;;;;9.73;5.13;;;24.40;99.90;;;;;;5043498;28;20032;-81
2023/06/22 08:18:06;;;;;;;7.85;4.45;;;24.50;99.90;;;;;;5054438;28;20043;-81
2023/06/22 08:20:32;;;;;;;7.47;4.20;;;24.60;99.90;;;;;;5054652;28;20048;-82
2023/06/22 08:23:00;;;;;;;7.22;4.18;;;24.70;99.90;;;;;;5049327;28;20071;-82
2023/06/22 08:25:26;;;;;;;8.68;4.28;;;24.70;99.90;;;;;;5045104;28;20025;-81
2023/06/22 08:27:51;;;;;;;9.52;4.90;;;24.70;99.90;;;;;;5041368;28;20032;-80
2023/06/22 08:30:18;;;;;;;8.50;4.28;;;24.80;99.90;;;;;;5054074;28;20057;-80
2023/06/22 08:32:44;;;;;;;5.68;3.88;;;24.90;99.90;;;;;;5054072;28;20016;-80
2023/06/22 08:35:10;;;;;;;6.72;3.90;;;25.10;99.90;;;;;;5047057;28;20052;-81
2023/06/22 08:37:38;;;;;;;11.15;4.60;;;25.20;99.90;;;;;;5045213;28;20032;-78
2023/06/22 08:40:07;;;;;;;9.23;4.05;;;25.30;99.90;;;;;;5050586;28;20033;-79
2023/06/22 08:42:33;;;;;;;8.57;4.07;;;25.40;99.90;;;;;;5054489;28;20025;-82
2023/06/22 08:44:59;;;;;;;8.25;4.18;;;25.50;99.90;;;;;;5049218;28;20036;-83
2023/06/22 08:47:24;;;;;;;6.63;3.40;;;25.70;99.90;;;;;;5037852;28;20033;-78
2023/06/22 08:49:50;;;;;;;5.85;3.38;;;25.80;99.90;;;;;;5031747;28;20112;-82
2023/06/22 08:52:18;;;;;;;7.03;3.70;;;26.00;99.90;;;;;;5041157;28;20087;-81
2023/06/22 08:54:43;;;;;;;7.00;4.25;;;26.10;99.90;;;;;;5035811;28;20025;-81
2023/06/22 08:57:09;;;;;;;6.45;4.18;;;26.30;99.90;;;;;;5041018;28;20051;-81
2023/06/22 08:59:35;;;;;;;6.40;3.97;;;26.40;99.90;;;;;;5053265;28;20085;-81
2023/06/22 09:02:00;;;;;;;5.97;3.65;;;26.50;99.90;;;;;;5048627;28;20025;-81
2023/06/22 09:04:26;;;;;;;7.28;3.85;;;26.60;99.90;;;;;;5054076;28;20090;-80
2023/06/22 09:06:52;;;;;;;7.40;4.03;;;26.60;99.90;;;;;;5053384;28;20021;-81
2023/06/22 09:09:18;;;;;;;12.60;4.22;;;26.60;99.90;;;;;;5042446;28;20504;-81
2023/06/22 09:11:44;;;;;;;8.18;3.83;;;26.60;99.90;;;;;;5041602;28;20029;-80
2023/06/22 09:14:10;;;;;;;7.53;3.90;;;26.60;99.90;;;;;;5048824;28;20024;-81
2023/06/22 09:16:36;;;;;;;5.72;4.13;;;26.70;99.90;;;;;;5036142;28;20021;-80
2023/06/22 09:19:02;;;;;;;7.45;3.95;;;26.60;99.90;;;;;;5047262;28;20078;-84
2023/06/22 09:21:27;;;;;;;7.80;3.83;;;26.50;99.90;;;;;;5035128;28;20044;-80
2023/06/22 09:23:53;;;;;;;8.50;3.83;;;26.50;99.90;;;;;;5027369;28;20036;-80
2023/06/22 09:26:19;;;;;;;8.30;5.03;;;26.50;99.90;;;;;;5052904;28;20025;-82
2023/06/22 09:28:45;;;;;;;15.02;8.10;;;26.50;99.90;;;;;;5036600;28;20039;-84
2023/06/22 09:31:11;;;;;;;7.57;4.55;;;26.40;99.90;;;;;;5035141;28;20040;-80
2023/06/22 09:33:40;;;;;;;6.15;3.97;;;26.40;99.90;;;;;;5039928;28;20033;-81
2023/06/22 09:36:09;;;;;;;10.13;4.35;;;26.40;99.90;;;;;;5040528;28;20402;-82
2023/06/22 09:38:38;;;;;;;7.85;3.50;;;26.40;99.90;;;;;;5052236;28;20473;-82
2023/06/22 09:41:04;;;;;;;7.93;3.75;;;26.50;99.90;;;;;;5035448;28;20049;-84
2023/06/22 09:43:32;;;;;;;9.65;3.90;;;26.60;99.90;;;;;;5048390;28;20111;-84
2023/06/22 09:45:57;;;;;;;9.30;4.15;;;26.80;99.90;;;;;;5034067;28;20043;-83
2023/06/22 09:48:23;;;;;;;7.05;3.58;;;27.00;99.90;;;;;;5029164;28;20116;-83
2023/06/22 09:50:48;;;;;;;7.32;4.15;;;27.20;99.90;;;;;;5030175;28;20029;-83
2023/06/22 09:53:14;;;;;;;6.97;3.53;;;27.30;99.90;;;;;;5030935;28;20025;-83
2023/06/22 09:55:40;;;;;;;7.85;3.75;;;27.40;99.90;;;;;;5051644;28;20040;-82
2023/06/22 09:58:05;;;;;;;7.80;4.05;;;27.40;99.90;;;;;;5046125;28;20063;-83
2023/06/22 10:00:31;;;;;;;8.50;3.65;;;27.50;99.90;;;;;;5030759;28;20027;-79
2023/06/22 10:02:57;;;;;;;7.68;3.80;;;27.50;99.90;;;;;;5048671;28;20029;-79
2023/06/22 10:05:23;;;;;;;8.60;3.55;;;27.50;99.90;;;;;;5025165;28;20030;-79
2023/06/22 10:07:49;;;;;;;8.43;3.85;;;27.50;99.90;;;;;;5020129;28;20120;-79
2023/06/22 10:10:15;;;;;;;6.07;3.65;;;27.50;99.90;;;;;;5041120;28;20026;-81
2023/06/22 10:12:54;;;;;;;7.22;4.20;;;27.50;99.90;;;;;;5047473;28;20025;-84
2023/06/22 10:15:21;;;;;;;10.30;4.25;;;27.60;99.90;;;;;;5046905;28;20108;-84
2023/06/22 10:17:47;;;;;;;6.53;3.75;;;27.70;99.90;;;;;;5047064;28;20079;-83
2023/06/22 10:20:13;;;;;;;7.90;3.60;;;27.80;99.90;;;;;;5035728;28;20094;-83
2023/06/22 10:22:40;;;;;;;6.57;3.75;;;27.90;99.90;;;;;;5044454;28;20087;-83
2023/06/22 10:25:07;;;;;;;6.78;3.75;;;27.80;99.90;;;;;;5039455;28;20025;-82
2023/06/22 10:27:32;;;;;;;9.75;4.57;;;27.90;99.90;;;;;;5046647;28;20017;-84
2023/06/22 10:29:58;;;;;;;8.05;4.03;;;27.90;99.90;;;;;;5037183;28;20031;-81
2023/06/22 10:32:23;;;;;;;7.20;3.88;;;27.80;99.90;;;;;;5027716;28;20032;-81
2023/06/22 10:34:49;;;;;;;11.48;3.97;;;27.80;99.90;;;;;;5048282;28;20041;-80
2023/06/22 10:37:15;;;;;;;6.70;4.20;;;27.80;99.90;;;;;;5045419;28;20021;-80
2023/06/22 10:39:40;;;;;;;9.45;4.38;;;28.00;99.90;;;;;;5033857;28;20555;-80
2023/06/22 10:42:06;;;;;;;5.97;3.53;;;28.00;99.90;;;;;;5028726;28;20031;-81
2023/06/22 10:44:31;;;;;;;8.07;4.00;;;28.10;99.90;;;;;;5038152;28;20067;-83
2023/06/22 10:46:57;;;;;;;8.80;3.80;;;28.10;99.90;;;;;;5031081;28;20021;-86
2023/06/22 10:49:23;;;;;;;7.78;4.05;;;28.10;99.90;;;;;;5032386;28;20029;-84
2023/06/22 10:51:48;;;;;;;10.65;3.97;;;28.10;99.90;;;;;;5037282;28;20036;-88
2023/06/22 10:54:14;;;;;;;7.85;3.75;;;28.30;99.90;;;;;;5048510;28;20032;-82
2023/06/22 10:56:40;;;;;;;8.63;3.92;;;28.30;99.90;;;;;;5035168;28;20032;-85
2023/06/22 10:59:06;;;;;;;8.25;4.30;;;28.40;99.90;;;;;;5030605;28;20067;-89
2023/06/22 11:01:33;;;;;;;8.10;4.07;;;28.50;99.90;;;;;;5039519;28;20029;-86
2023/06/22 11:03:59;;;;;;;8.75;4.03;;;28.60;99.90;;;;;;5032438;28;20025;-86
2023/06/22 11:06:24;;;;;;;7.65;3.55;;;28.70;99.90;;;;;;5034921;28;20186;-86
2023/06/22 11:08:50;;;;;;;8.30;3.97;;;28.70;99.90;;;;;;5054385;28;20033;-87
2023/06/22 11:11:17;;;;;;;8.43;4.20;;;28.80;99.90;;;;;;5050652;28;20025;-82
2023/06/22 11:13:43;;;;;;;7.10;4.18;;;28.90;99.90;;;;;;5050488;28;20508;-83
2023/06/22 11:16:10;;;;;;;7.10;4.00;;;28.90;99.90;;;;;;5049093;28;20029;-82
2023/06/22 11:18:36;;;;;;;8.52;4.03;;;29.10;99.90;;;;;;5036411;28;20127;-81
2023/06/22 11:21:01;;;;;;;8.13;4.45;;;29.10;99.90;;;;;;5054558;28;20025;-81
2023/06/22 11:23:28;;;;;;;10.32;4.07;;;29.20;99.90;;;;;;5042141;28;20040;-81
2023/06/22 11:25:54;;;;;;;6.72;3.97;;;29.20;99.90;;;;;;5047489;28;20052;-79
2023/06/22 11:28:19;;;;;;;9.85;4.13;;;29.30;99.90;;;;;;5048915;28;20037;-86
2023/06/22 11:30:45;;;;;;;7.25;4.00;;;29.30;99.90;;;;;;5037921;28;20031;-81
2023/06/22 11:33:11;;;;;;;10.93;4.10;;;29.40;99.90;;;;;;5039909;28;20021;-80
2023/06/22 11:35:36;;;;;;;10.27;3.80;;;29.40;99.90;;;;;;5054545;28;20029;-81
2023/06/22 11:38:03;;;;;;;7.07;4.25;;;29.50;99.90;;;;;;5039529;28;20033;-81
2023/06/22 11:40:29;;;;;;;11.95;4.35;;;29.60;99.90;;;;;;5033362;28;20258;-81
2023/06/22 11:42:55;;;;;;;13.10;4.18;;;29.70;99.90;;;;;;5040665;28;20017;-81
2023/06/22 11:45:20;;;;;;;8.82;3.95;;;29.70;99.90;;;;;;5040170;28;20033;-81
2023/06/22 11:47:46;;;;;;;9.15;3.97;;;29.70;99.90;;;;;;5054406;28;20025;-81
2023/06/22 11:50:12;;;;;;;7.40;4.22;;;29.70;99.90;;;;;;5041842;28;20082;-79
2023/06/22 11:52:38;;;;;;;9.40;4.00;;;29.80;99.90;;;;;;5035450;28;20025;-87
2023/06/22 11:55:05;;;;;;;8.70;3.75;;;29.80;99.90;;;;;;5037457;28;20033;-83
2023/06/22 11:57:37;;;;;;;7.50;4.00;;;29.80;99.90;;;;;;5029735;28;20474;-83
2023/06/22 12:00:14;;;;;;;11.30;4.22;;;29.80;99.90;;;;;;5047504;28;20029;-82
2023/06/22 12:02:39;;;;;;;8.38;3.80;;;29.80;99.90;;;;;;5046660;28;20033;-80
2023/06/22 12:05:06;;;;;;;6.80;3.47;;;29.80;99.90;;;;;;5031191;28;20025;-82
2023/06/22 12:07:31;;;;;;;8.25;4.07;;;29.80;99.80;;;;;;5054058;28;20056;-83
2023/06/22 12:09:57;;;;;;;10.23;4.05;;;30.00;99.90;;;;;;5040300;28;20037;-83
2023/06/22 12:12:22;;;;;;;9.23;3.70;;;30.10;99.70;;;;;;5053429;28;20022;-82
2023/06/22 12:14:48;;;;;;;9.02;3.80;;;30.30;99.30;;;;;;5046442;28;20041;-85
2023/06/22 12:17:13;;;;;;;10.23;4.00;;;30.50;99.00;;;;;;5048678;28;20382;-86
2023/06/22 12:19:39;;;;;;;10.45;3.60;;;30.60;98.90;;;;;;5049174;28;20074;-84
2023/06/22 12:22:05;;;;;;;8.57;4.07;;;30.80;98.70;;;;;;5039490;28;20056;-84
2023/06/22 12:24:30;;;;;;;8.10;4.18;;;30.80;98.70;;;;;;5042065;28;20470;-84
2023/06/22 12:26:56;;;;;;;9.50;4.10;;;30.80;97.90;;;;;;5054429;28;20107;-83
2023/06/22 12:29:21;;;;;;;7.50;3.85;;;30.90;97.80;;;;;;5045821;28;20396;-80
2023/06/22 12:31:47;;;;;;;9.68;5.35;;;31.00;97.60;;;;;;5046571;28;20025;-83
2023/06/22 12:34:12;;;;;;;7.38;4.72;;;30.90;97.30;;;;;;5035924;28;20021;-82
2023/06/22 12:36:38;;;;;;;12.07;4.50;;;30.80;97.20;;;;;;5051837;28;20106;-81
2023/06/22 12:39:03;;;;;;;7.03;3.97;;;30.80;97.20;;;;;;5054241;28;20363;-82
2023/06/22 12:41:29;;;;;;;6.50;4.07;;;30.70;97.60;;;;;;5053023;28;20041;-82
2023/06/22 12:43:54;;;;;;;8.43;4.20;;;30.70;97.40;;;;;;5054798;28;20033;-82